KITH/ITH METAR and TAF weather

Enter ICAO airport designator
Station Type Date Time Source
KITH METAR 2020/09/20 06:56 UTC NOAA

KITH 200656Z AUTO 09004KT 10SM CLR 01/00 A3047 RMK AO2 SLP323 T00060000


Station Type Date Time Source
KITH Decoded METAR 2020/09/20 06:56 UTC NOAA

Ithaca, Ithaca Tompkins Regional Airport, NY, United States (KITH) 42-29-27N 076-27-30W
Sep 20, 2020 - 02:56 AM EDT / 2020.09.20 0656 UTC
Wind: from the E (090 degrees) at 5 MPH (4 KT):0
Visibility: 10 mile(s):0
Sky conditions: clear
Temperature: 33.1 F (0.6 C)
Windchill: 28 F (-2 C):1
Dew Point: 32.0 F (0.0 C)
Relative Humidity: 95%
Pressure (altimeter): 30.47 in. Hg (1031 hPa)
ob: KITH 200656Z AUTO 09004KT 10SM CLR 01/00 A3047 RMK AO2 SLP323 T00060000
cycle: 7

Station Type Date Time Source
KITH TAF 2020/09/20 06:33 UTC NOAA

TAF KITH 200531Z 2006/2106 07003KT P6SM FEW100 SCT200
FM201500 03007KT P6SM SKC
FM210100 VRB03KT P6SM SKC

Example: see airport list